Time;durP1;ratioP1;P1;durP2;ratioP2;P2;SDS_P1;SDS_P2;PMS_P1;PMS_P2;Temp;Humidity;BMP_temperature;BMP_pressure;BME280_temperature;BME280_humidity;BME280_pressure;Samples;Min_cycle;Max_cycle;Signal;HPM_P1;HPM_P2
2021/03/05 00:01:14;;;;;;;20.10;3.95;;;5.10;99.90;;;;;;4159460;28;20029;-71
2021/03/05 00:03:15;;;;;;;17.02;4.03;;;5.10;99.90;;;;;;4159558;28;20119;-71
2021/03/05 00:05:16;;;;;;;11.93;3.03;;;5.10;99.90;;;;;;4158784;28;20025;-71
2021/03/05 00:07:17;;;;;;;20.45;4.22;;;5.10;99.90;;;;;;4158694;28;20051;-71
2021/03/05 00:09:17;;;;;;;18.58;3.75;;;5.10;99.90;;;;;;4155454;28;20753;-71
2021/03/05 00:11:18;;;;;;;23.20;4.47;;;5.10;99.90;;;;;;4150601;28;20033;-71
2021/03/05 00:13:22;;;;;;;17.45;3.58;;;5.10;99.90;;;;;;4159874;28;20377;-71
2021/03/05 00:15:26;;;;;;;21.05;4.72;;;5.10;99.90;;;;;;4159659;28;20631;-71
2021/03/05 00:17:26;;;;;;;20.17;4.05;;;5.10;99.90;;;;;;4158500;28;20485;-71
2021/03/05 00:19:27;;;;;;;22.10;4.68;;;5.10;99.90;;;;;;4151399;28;20040;-71
2021/03/05 00:21:28;;;;;;;17.42;4.10;;;5.10;99.90;;;;;;4151386;28;20095;-71
2021/03/05 00:23:28;;;;;;;12.07;3.60;;;5.10;99.90;;;;;;4157718;28;20034;-71
2021/03/05 00:25:29;;;;;;;19.85;4.25;;;5.10;99.90;;;;;;4141710;28;20084;-71
2021/03/05 00:27:30;;;;;;;20.48;4.15;;;5.10;99.90;;;;;;4139930;28;20042;-71
2021/03/05 00:29:30;;;;;;;18.55;4.07;;;5.10;99.90;;;;;;4147857;28;20041;-71
2021/03/05 00:31:31;;;;;;;12.85;3.72;;;5.10;99.90;;;;;;4188318;28;20569;-71
2021/03/05 00:33:32;;;;;;;19.48;3.90;;;5.00;99.90;;;;;;4158302;28;20044;-71
2021/03/05 00:35:33;;;;;;;20.38;4.20;;;5.10;99.90;;;;;;4133200;28;20078;-71
2021/03/05 00:37:34;;;;;;;13.75;3.80;;;5.10;99.90;;;;;;4154857;28;20037;-71
2021/03/05 00:39:34;;;;;;;15.90;3.95;;;5.00;99.90;;;;;;4159624;28;20037;-71
2021/03/05 00:41:35;;;;;;;14.63;3.80;;;5.10;99.90;;;;;;4152724;28;20479;-71
2021/03/05 00:43:39;;;;;;;19.02;4.10;;;5.10;99.90;;;;;;4153013;28;20034;-71
2021/03/05 00:45:40;;;;;;;19.63;4.40;;;5.10;99.90;;;;;;4153976;28;20501;-71
2021/03/05 00:47:42;;;;;;;16.15;3.85;;;5.10;99.90;;;;;;4159905;28;20069;-71
2021/03/05 00:49:43;;;;;;;21.92;5.10;;;5.10;99.90;;;;;;4159597;28;20041;-71
2021/03/05 00:51:43;;;;;;;13.95;4.15;;;5.10;99.90;;;;;;4159033;28;20067;-72
2021/03/05 00:53:44;;;;;;;23.70;5.22;;;5.10;99.90;;;;;;4145623;28;20036;-71
2021/03/05 00:55:44;;;;;;;22.17;4.93;;;5.10;99.90;;;;;;4152208;28;20076;-71
2021/03/05 00:57:45;;;;;;;16.60;4.80;;;5.10;99.90;;;;;;4158935;28;20053;-71
2021/03/05 00:59:46;;;;;;;18.75;5.60;;;5.10;99.90;;;;;;4147882;28;20038;-71
2021/03/05 01:01:46;;;;;;;17.85;4.95;;;5.10;99.90;;;;;;4158754;28;20034;-71
2021/03/05 01:03:47;;;;;;;17.70;5.20;;;5.10;99.90;;;;;;4156579;28;20035;-71
2021/03/05 01:05:47;;;;;;;14.57;4.40;;;5.10;99.90;;;;;;4147765;28;20022;-71
2021/03/05 01:07:48;;;;;;;18.40;4.85;;;5.10;99.90;;;;;;4158362;28;20041;-71
2021/03/05 01:09:49;;;;;;;17.20;5.07;;;5.10;99.90;;;;;;4154051;28;20504;-71
2021/03/05 01:11:50;;;;;;;20.48;5.75;;;5.10;99.90;;;;;;4157733;28;20033;-71
2021/03/05 01:13:51;;;;;;;18.05;5.25;;;5.10;99.90;;;;;;4154527;28;20662;-71
2021/03/05 01:15:51;;;;;;;20.90;6.35;;;5.10;99.90;;;;;;4158305;28;20037;-71
2021/03/05 01:17:52;;;;;;;18.45;5.13;;;5.10;99.90;;;;;;4140645;28;20041;-71
2021/03/05 01:19:53;;;;;;;18.02;5.78;;;5.10;99.90;;;;;;4149783;28;20041;-71
2021/03/05 01:21:54;;;;;;;22.05;5.47;;;5.10;99.90;;;;;;4160092;28;20063;-71
2021/03/05 01:23:54;;;;;;;18.95;5.85;;;5.10;99.90;;;;;;4161954;28;20103;-71
2021/03/05 01:25:55;;;;;;;15.75;5.70;;;5.10;99.90;;;;;;4144654;28;20047;-71
2021/03/05 01:27:56;;;;;;;17.52;5.97;;;5.20;99.90;;;;;;4152263;28;20038;-71
2021/03/05 01:29:56;;;;;;;24.63;5.63;;;5.20;99.90;;;;;;4162154;28;20104;-71
2021/03/05 01:31:57;;;;;;;15.73;5.55;;;5.10;99.90;;;;;;4160527;28;20025;-71
2021/03/05 01:33:58;;;;;;;16.70;5.70;;;5.20;99.90;;;;;;4159834;28;20594;-71
2021/03/05 01:35:59;;;;;;;12.55;5.47;;;5.20;99.90;;;;;;4156380;28;20112;-71
2021/03/05 01:37:59;;;;;;;19.00;6.55;;;5.20;99.90;;;;;;4154315;28;20037;-71
2021/03/05 01:40:00;;;;;;;21.55;7.20;;;5.20;99.90;;;;;;4153236;28;20100;-71
2021/03/05 01:42:00;;;;;;;16.38;6.68;;;5.20;99.90;;;;;;4160060;28;20033;-71
2021/03/05 01:44:01;;;;;;;16.45;6.80;;;5.20;99.90;;;;;;4161866;28;20026;-71
2021/03/05 01:46:02;;;;;;;17.73;7.15;;;5.20;99.90;;;;;;4162303;28;20037;-71
2021/03/05 01:48:17;;;;;;;15.73;7.10;;;5.20;99.90;;;;;;4162055;28;20044;-71
2021/03/05 01:50:21;;;;;;;23.67;8.95;;;5.20;99.90;;;;;;4161689;28;20436;-71
2021/03/05 01:52:24;;;;;;;26.48;8.52;;;5.20;99.90;;;;;;4161924;28;20136;-71
2021/03/05 01:54:24;;;;;;;18.08;8.02;;;5.20;99.90;;;;;;4161886;28;20560;-71
2021/03/05 01:56:44;;;;;;;22.40;9.77;;;5.20;99.90;;;;;;4162085;28;20359;-71
2021/03/05 01:58:44;;;;;;;20.92;8.98;;;5.20;99.90;;;;;;4153994;28;20063;-71
2021/03/05 02:00:49;;;;;;;19.35;8.98;;;5.20;99.90;;;;;;4151708;28;20436;-71
2021/03/05 02:02:49;;;;;;;22.20;9.75;;;5.30;99.90;;;;;;4156154;28;20416;-71
2021/03/05 02:04:50;;;;;;;18.05;9.73;;;5.30;99.90;;;;;;4161856;28;20117;-71
2021/03/05 02:06:50;;;;;;;18.88;10.02;;;5.20;99.90;;;;;;4152612;28;20076;-71
2021/03/05 02:08:51;;;;;;;16.83;9.63;;;5.30;99.90;;;;;;4142665;28;20038;-71
2021/03/05 02:10:52;;;;;;;20.65;10.02;;;5.30;99.90;;;;;;4153179;28;20034;-71
2021/03/05 02:12:52;;;;;;;23.02;12.40;;;5.30;99.90;;;;;;4158810;28;20064;-71
2021/03/05 02:14:53;;;;;;;23.23;11.07;;;5.30;99.90;;;;;;4161391;28;20033;-71
2021/03/05 02:17:05;;;;;;;26.00;11.77;;;5.20;99.90;;;;;;4166962;28;20129;-71
2021/03/05 02:19:42;;;;;;;21.98;11.40;;;5.30;99.90;;;;;;4162796;28;20590;-71
2021/03/05 02:22:11;;;;;;;17.48;10.40;;;5.30;99.90;;;;;;4153199;28;20041;-71
2021/03/05 02:24:43;;;;;;;20.33;12.32;;;5.30;99.90;;;;;;4161319;28;20060;-71
2021/03/05 02:27:21;;;;;;;20.08;11.38;;;5.20;99.90;;;;;;4150145;28;20424;-71
2021/03/05 02:29:47;;;;;;;18.27;10.82;;;5.20;99.90;;;;;;4161634;28;20045;-71
2021/03/05 02:31:48;;;;;;;16.10;10.25;;;5.20;99.90;;;;;;4159853;28;20037;-71
2021/03/05 02:34:13;;;;;;;21.42;10.77;;;5.20;99.90;;;;;;4161098;28;20087;-71
2021/03/05 02:36:26;;;;;;;15.77;9.98;;;5.20;99.90;;;;;;4152931;28;20391;-71
2021/03/05 02:38:27;;;;;;;;;;;5.20;99.90;;;;;;4159344;28;20041;-71
2021/03/05 02:40:50;;;;;;;15.13;9.68;;;5.20;99.90;;;;;;4159937;28;19919;-71
2021/03/05 02:42:57;;;;;;;16.83;10.75;;;5.20;99.90;;;;;;4157008;28;20037;-71
2021/03/05 02:45:06;;;;;;;19.42;10.70;;;5.10;99.90;;;;;;4151381;28;20041;-71
2021/03/05 02:47:10;;;;;;;15.73;10.80;;;5.10;99.90;;;;;;4158097;28;20029;-71
2021/03/05 02:49:18;;;;;;;16.92;10.70;;;5.10;99.90;;;;;;4159598;28;20658;-71
2021/03/05 02:51:22;;;;;;;15.75;10.65;;;5.10;99.90;;;;;;4143172;28;20041;-71
2021/03/05 02:53:25;;;;;;;17.02;10.85;;;5.00;99.90;;;;;;4159512;28;20030;-71
2021/03/05 02:55:27;;;;;;;17.70;9.93;;;5.10;99.90;;;;;;4160952;28;20099;-71
2021/03/05 02:57:31;;;;;;;15.73;10.52;;;5.00;99.90;;;;;;4159788;28;20041;-71
2021/03/05 02:59:35;;;;;;;17.85;10.95;;;5.10;99.90;;;;;;4151267;28;20029;-71
2021/03/05 03:01:37;;;;;;;13.95;9.68;;;5.10;99.90;;;;;;4155582;28;20068;-71
2021/03/05 03:03:38;;;;;;;14.82;9.45;;;5.10;99.90;;;;;;4154055;28;20428;-71
2021/03/05 03:05:40;;;;;;;15.98;10.38;;;5.00;99.90;;;;;;4161007;28;20034;-71
2021/03/05 03:07:41;;;;;;;14.65;10.30;;;5.00;99.90;;;;;;4150843;28;20037;-71
2021/03/05 03:09:43;;;;;;;14.57;9.63;;;5.00;99.90;;;;;;4152210;28;20543;-71
2021/03/05 03:11:44;;;;;;;13.95;9.07;;;5.00;99.90;;;;;;4158451;28;20046;-71
2021/03/05 03:13:47;;;;;;;16.10;9.70;;;5.00;99.90;;;;;;4157208;28;20149;-71
2021/03/05 03:15:49;;;;;;;13.73;9.55;;;4.90;99.90;;;;;;4161556;28;20338;-71
2021/03/05 03:17:52;;;;;;;12.90;8.73;;;4.90;99.90;;;;;;4158528;28;20037;-71
2021/03/05 03:19:54;;;;;;;13.40;8.60;;;4.90;99.90;;;;;;4164651;28;20264;-71
2021/03/05 03:21:56;;;;;;;12.23;7.80;;;4.90;99.90;;;;;;4153091;28;20046;-71
2021/03/05 03:23:57;;;;;;;13.10;8.20;;;4.90;99.90;;;;;;4148123;28;20034;-71
2021/03/05 03:25:59;;;;;;;12.00;7.85;;;4.80;99.90;;;;;;4159857;28;20407;-71
2021/03/05 03:28:00;;;;;;;10.77;7.68;;;4.80;99.90;;;;;;4161475;28;20033;-71
2021/03/05 03:30:03;;;;;;;12.18;7.70;;;4.80;99.90;;;;;;4161599;28;20038;-71
2021/03/05 03:32:04;;;;;;;12.27;7.55;;;4.80;99.90;;;;;;4134358;28;20042;-71
2021/03/05 03:34:05;;;;;;;12.50;6.53;;;4.70;99.90;;;;;;4156790;28;20458;-71
2021/03/05 03:36:07;;;;;;;12.52;6.53;;;4.70;99.90;;;;;;4162015;28;20347;-70
2021/03/05 03:38:09;;;;;;;12.52;5.90;;;4.60;99.90;;;;;;4161623;28;20041;-71
2021/03/05 03:40:18;;;;;;;7.95;5.43;;;4.60;99.90;;;;;;4161775;28;20117;-71
2021/03/05 03:42:18;;;;;;;9.43;5.80;;;4.60;99.90;;;;;;4112592;28;20030;-71
2021/03/05 03:44:19;;;;;;;9.57;6.07;;;4.50;99.90;;;;;;4159896;28;20038;-71
2021/03/05 03:46:20;;;;;;;7.70;5.43;;;4.60;99.90;;;;;;4156316;28;20042;-70
2021/03/05 03:48:20;;;;;;;9.10;5.63;;;4.50;99.90;;;;;;4156947;28;20050;-71
2021/03/05 03:50:32;;;;;;;9.70;5.20;;;4.50;99.90;;;;;;4161464;28;20053;-71
2021/03/05 03:52:40;;;;;;;8.17;4.93;;;4.30;99.90;;;;;;4154419;28;20486;-71
2021/03/05 03:54:42;;;;;;;10.13;4.90;;;4.30;99.90;;;;;;4161205;28;20037;-71
2021/03/05 03:56:46;;;;;;;12.80;5.57;;;4.20;99.90;;;;;;4153349;28;20133;-71
2021/03/05 03:58:49;;;;;;;8.55;5.03;;;4.20;99.90;;;;;;4161806;28;20033;-70
2021/03/05 04:00:53;;;;;;;7.35;4.28;;;4.00;99.90;;;;;;4157196;28;20045;-70
2021/03/05 04:02:55;;;;;;;7.88;4.35;;;4.00;99.90;;;;;;4156255;28;20115;-70
2021/03/05 04:04:59;;;;;;;6.50;4.03;;;4.00;99.90;;;;;;4159514;28;20029;-70
2021/03/05 04:07:01;;;;;;;6.65;4.20;;;4.00;99.90;;;;;;4159752;28;20607;-70
2021/03/05 04:09:03;;;;;;;9.55;4.75;;;3.90;99.90;;;;;;4160221;28;20046;-70
2021/03/05 04:11:07;;;;;;;7.10;4.57;;;3.90;99.90;;;;;;4157825;28;20124;-70
2021/03/05 04:13:09;;;;;;;7.90;4.22;;;3.90;99.90;;;;;;4156701;28;20413;-70
2021/03/05 04:15:11;;;;;;;7.05;4.53;;;3.80;99.90;;;;;;4158947;28;20033;-70
2021/03/05 04:17:12;;;;;;;8.75;4.43;;;3.80;99.90;;;;;;4159977;28;20051;-70
2021/03/05 04:19:13;;;;;;;8.70;4.30;;;3.80;99.90;;;;;;4158573;28;20124;-70
2021/03/05 04:21:18;;;;;;;7.67;4.47;;;3.70;99.90;;;;;;4156171;28;20034;-70
2021/03/05 04:23:21;;;;;;;7.13;4.07;;;3.70;99.90;;;;;;4149051;28;20497;-70
2021/03/05 04:25:21;;;;;;;6.93;3.60;;;3.70;99.90;;;;;;4159310;28;20045;-70
2021/03/05 04:27:22;;;;;;;6.53;3.88;;;3.60;99.90;;;;;;4161109;28;20441;-70
2021/03/05 04:29:23;;;;;;;7.47;4.38;;;3.60;99.90;;;;;;4160784;28;20086;-70
2021/03/05 04:31:24;;;;;;;8.38;4.13;;;3.60;99.90;;;;;;4160560;28;20044;-70
2021/03/05 04:33:25;;;;;;;4.82;3.38;;;3.60;99.90;;;;;;4161319;28;20508;-70
2021/03/05 04:35:26;;;;;;;5.55;3.92;;;3.60;99.90;;;;;;4158561;28;20053;-70
2021/03/05 04:37:30;;;;;;;6.93;3.80;;;3.60;99.90;;;;;;4153975;28;20071;-70
2021/03/05 04:39:30;;;;;;;6.90;4.22;;;3.50;99.90;;;;;;4161381;28;20565;-70
2021/03/05 04:41:31;;;;;;;6.55;3.88;;;3.50;99.90;;;;;;4153125;28;20038;-70
2021/03/05 04:43:32;;;;;;;5.20;3.80;;;3.50;99.90;;;;;;4158193;28;20033;-70
2021/03/05 04:45:32;;;;;;;8.38;4.40;;;3.50;99.90;;;;;;4160159;28;20033;-70
2021/03/05 04:47:33;;;;;;;7.00;4.00;;;3.50;99.90;;;;;;4158492;28;20041;-70
2021/03/05 04:49:34;;;;;;;7.20;4.80;;;3.40;99.90;;;;;;4159506;28;20071;-70
2021/03/05 04:51:35;;;;;;;5.97;3.80;;;3.40;99.90;;;;;;4160445;28;20112;-70
2021/03/05 04:53:35;;;;;;;9.38;4.15;;;3.40;99.90;;;;;;4161291;28;20091;-70
2021/03/05 04:55:37;;;;;;;6.40;4.18;;;3.30;99.90;;;;;;4163516;28;20396;-70
2021/03/05 04:57:38;;;;;;;6.63;4.18;;;3.30;99.90;;;;;;4145895;28;20061;-70
2021/03/05 04:59:38;;;;;;;8.07;4.72;;;3.30;99.90;;;;;;4162665;28;20032;-70
2021/03/05 05:01:39;;;;;;;9.10;4.38;;;3.30;99.90;;;;;;4163931;28;20029;-70
2021/03/05 05:03:39;;;;;;;6.85;4.10;;;3.20;99.90;;;;;;4163246;28;20493;-70
2021/03/05 05:05:40;;;;;;;7.65;4.15;;;3.20;99.90;;;;;;4145653;28;20022;-70
2021/03/05 05:07:42;;;;;;;9.35;3.70;;;3.20;99.90;;;;;;4163265;28;20037;-70
2021/03/05 05:09:42;;;;;;;8.75;4.07;;;3.20;99.90;;;;;;4157484;28;20379;-70
2021/03/05 05:11:43;;;;;;;6.57;4.05;;;3.10;99.90;;;;;;4160517;28;20119;-70
2021/03/05 05:13:43;;;;;;;7.63;3.83;;;3.10;99.90;;;;;;4162412;28;20018;-70
2021/03/05 05:15:44;;;;;;;6.30;3.75;;;3.00;99.90;;;;;;4163546;28;20029;-70
2021/03/05 05:17:45;;;;;;;6.22;3.60;;;3.10;99.90;;;;;;4161753;28;20030;-70
2021/03/05 05:19:46;;;;;;;6.50;3.10;;;3.00;99.90;;;;;;4154407;28;20060;-70
2021/03/05 05:21:46;;;;;;;4.85;2.97;;;3.00;99.90;;;;;;4158149;28;20044;-70
2021/03/05 05:23:47;;;;;;;5.95;3.13;;;2.90;99.90;;;;;;4163923;28;20033;-70
2021/03/05 05:25:48;;;;;;;4.97;3.03;;;2.90;99.90;;;;;;4162599;28;20113;-70
2021/03/05 05:27:48;;;;;;;8.90;3.42;;;2.90;99.90;;;;;;4161804;28;20394;-70
2021/03/05 05:29:49;;;;;;;6.15;2.92;;;2.80;99.90;;;;;;4160510;28;20026;-70
2021/03/05 05:31:50;;;;;;;9.35;2.90;;;2.80;99.90;;;;;;4167381;28;20033;-70
2021/03/05 05:33:51;;;;;;;6.35;2.80;;;2.80;99.90;;;;;;4155176;28;20029;-70
2021/03/05 05:35:51;;;;;;;5.55;2.88;;;2.70;99.90;;;;;;4161408;28;20041;-70
2021/03/05 05:37:52;;;;;;;3.95;2.45;;;2.70;99.90;;;;;;4158648;28;20060;-70
2021/03/05 05:39:53;;;;;;;5.18;2.13;;;2.70;99.90;;;;;;4161681;28;20022;-70
2021/03/05 05:41:55;;;;;;;6.47;2.40;;;2.70;99.90;;;;;;4159692;28;20117;-70
2021/03/05 05:43:55;;;;;;;6.10;2.30;;;2.60;99.90;;;;;;4155324;28;20146;-70
2021/03/05 05:46:06;;;;;;;4.45;2.45;;;2.60;99.90;;;;;;4161518;28;20042;-70
2021/03/05 05:48:12;;;;;;;5.95;2.40;;;2.60;99.90;;;;;;4154786;28;20380;-70
2021/03/05 05:50:13;;;;;;;4.78;2.33;;;2.60;99.90;;;;;;4156029;28;20068;-70
2021/03/05 05:52:20;;;;;;;4.85;2.35;;;2.60;99.90;;;;;;4151887;28;20038;-70
2021/03/05 05:54:22;;;;;;;6.95;2.47;;;2.50;99.90;;;;;;4155922;28;20075;-71
2021/03/05 05:56:23;;;;;;;2.78;2.03;;;2.50;99.90;;;;;;4152108;28;20506;-71
2021/03/05 05:58:26;;;;;;;5.25;2.40;;;2.50;99.90;;;;;;4150145;28;20046;-71
2021/03/05 06:00:27;;;;;;;4.03;2.03;;;2.50;99.90;;;;;;4156681;28;20449;-70
2021/03/05 06:02:29;;;;;;;3.78;1.98;;;2.50;99.90;;;;;;4160105;28;20038;-70
2021/03/05 06:04:31;;;;;;;6.03;2.53;;;2.50;99.90;;;;;;4158215;28;20034;-70
2021/03/05 06:06:32;;;;;;;4.57;2.07;;;2.50;99.90;;;;;;4159384;28;20034;-69
2021/03/05 06:08:33;;;;;;;4.05;1.90;;;2.40;99.90;;;;;;4155672;28;20033;-70
2021/03/05 06:10:33;;;;;;;4.80;2.17;;;2.40;99.90;;;;;;4156136;28;20034;-70
2021/03/05 06:12:34;;;;;;;6.03;2.22;;;2.40;99.90;;;;;;4158944;28;20029;-70
2021/03/05 06:14:35;;;;;;;3.78;1.80;;;2.40;99.90;;;;;;4154950;28;20064;-70
2021/03/05 06:16:51;;;;;;;3.80;1.92;;;2.40;99.90;;;;;;4156474;28;20041;-70
2021/03/05 06:18:52;;;;;;;6.05;2.05;;;2.40;99.90;;;;;;4157512;28;20115;-70
2021/03/05 06:20:53;;;;;;;3.75;1.75;;;2.40;99.90;;;;;;4155108;28;20203;-70
2021/03/05 06:23:13;;;;;;;4.47;1.98;;;2.40;99.90;;;;;;4147868;28;20580;-70
2021/03/05 06:25:36;;;;;;;2.42;1.73;;;2.40;99.90;;;;;;4151780;28;20041;-70
2021/03/05 06:27:38;;;;;;;3.13;1.92;;;2.50;99.90;;;;;;4155620;28;20116;-70
2021/03/05 06:29:43;;;;;;;6.13;2.03;;;2.50;99.90;;;;;;4151763;28;20143;-69
2021/03/05 06:32:01;;;;;;;3.95;2.10;;;2.50;99.90;;;;;;4132479;28;20056;-70
2021/03/05 06:34:03;;;;;;;5.47;2.22;;;2.50;99.90;;;;;;4159170;28;20042;-69
2021/03/05 06:36:20;;;;;;;5.30;2.97;;;2.50;99.90;;;;;;4130140;28;20120;-69
2021/03/05 06:38:43;;;;;;;4.50;1.92;;;2.50;99.90;;;;;;4152770;28;20032;-69
2021/03/05 06:40:43;;;;;;;3.42;1.75;;;2.40;99.90;;;;;;4153754;28;20034;-70
2021/03/05 06:42:55;;;;;;;6.00;1.80;;;2.40;99.90;;;;;;4156673;28;20116;-70
2021/03/05 06:44:55;;;;;;;3.17;1.55;;;2.40;99.90;;;;;;4153256;28;20117;-70
2021/03/05 06:46:56;;;;;;;3.63;1.60;;;2.40;99.90;;;;;;4151516;28;20044;-70
2021/03/05 06:49:00;;;;;;;2.75;1.48;;;2.40;99.90;;;;;;4154013;28;20033;-70
2021/03/05 06:51:07;;;;;;;3.40;1.70;;;2.40;99.90;;;;;;4154324;28;20108;-70
2021/03/05 06:53:25;;;;;;;7.93;2.05;;;2.40;99.90;;;;;;4156409;28;20385;-70
2021/03/05 06:55:25;;;;;;;4.50;1.52;;;2.40;99.90;;;;;;4159427;28;20569;-69
2021/03/05 06:57:27;;;;;;;3.63;1.58;;;2.40;99.90;;;;;;4158376;28;20061;-70
2021/03/05 06:59:36;;;;;;;3.33;1.67;;;2.40;99.90;;;;;;4157247;28;20123;-69
2021/03/05 07:01:47;;;;;;;2.97;1.42;;;2.40;99.90;;;;;;4149004;28;20057;-69
2021/03/05 07:04:05;;;;;;;4.28;1.85;;;2.40;99.90;;;;;;4151671;28;20111;-70
2021/03/05 07:06:06;;;;;;;3.88;1.50;;;2.40;99.90;;;;;;4153324;28;20036;-70
2021/03/05 07:08:07;;;;;;;8.18;1.50;;;2.40;99.90;;;;;;4157333;28;20033;-69
2021/03/05 07:10:08;;;;;;;3.60;1.50;;;2.40;99.90;;;;;;4158116;28;20437;-69
2021/03/05 07:12:17;;;;;;;3.83;1.70;;;2.40;99.90;;;;;;4155930;28;20501;-69
2021/03/05 07:14:18;;;;;;;3.50;1.38;;;2.40;99.90;;;;;;4140369;28;20084;-70
2021/03/05 07:16:19;;;;;;;2.70;1.35;;;2.40;99.90;;;;;;4154856;28;20045;-69
2021/03/05 07:18:20;;;;;;;4.65;1.83;;;2.40;99.90;;;;;;4157779;28;20049;-69
2021/03/05 07:20:21;;;;;;;5.82;2.13;;;2.40;99.90;;;;;;4157132;28;20204;-69
2021/03/05 07:22:27;;;;;;;3.65;1.67;;;2.30;99.90;;;;;;4154390;28;20048;-70
2021/03/05 07:24:29;;;;;;;3.33;1.65;;;2.30;99.90;;;;;;4153558;28;20033;-69
2021/03/05 07:26:34;;;;;;;4.65;1.83;;;2.30;99.90;;;;;;4149373;28;20574;-70
2021/03/05 07:28:36;;;;;;;3.15;1.55;;;2.30;99.90;;;;;;4152340;28;20116;-69
2021/03/05 07:30:37;;;;;;;3.00;1.40;;;2.30;99.90;;;;;;4157879;28;20121;-69
2021/03/05 07:32:38;;;;;;;5.47;1.60;;;2.40;99.90;;;;;;4157949;28;20276;-70
2021/03/05 07:34:57;;;;;;;5.10;1.70;;;2.30;99.90;;;;;;4155453;28;20113;-70
2021/03/05 07:37:01;;;;;;;3.85;1.65;;;2.40;99.90;;;;;;4158201;28;20029;-70
2021/03/05 07:39:04;;;;;;;4.30;1.60;;;2.30;99.90;;;;;;4158416;28;20551;-69
2021/03/05 07:41:06;;;;;;;3.22;1.52;;;2.40;99.90;;;;;;4156998;28;20063;-69
2021/03/05 07:43:07;;;;;;;6.85;1.50;;;2.40;99.90;;;;;;4158297;28;20033;-70
2021/03/05 07:45:12;;;;;;;6.35;2.00;;;2.40;99.90;;;;;;4156738;28;20107;-70
2021/03/05 07:47:15;;;;;;;7.38;2.03;;;2.40;99.90;;;;;;4156076;28;20029;-69
2021/03/05 07:49:26;;;;;;;3.78;1.60;;;2.50;99.90;;;;;;4149768;28;20103;-69
2021/03/05 07:51:27;;;;;;;3.78;1.67;;;2.60;99.90;;;;;;4157208;28;20037;-70
2021/03/05 07:53:28;;;;;;;4.63;1.40;;;2.50;99.90;;;;;;4157475;28;20512;-69
2021/03/05 07:55:54;;;;;;;8.05;1.90;;;2.60;99.90;;;;;;4155815;28;20566;-69
2021/03/05 07:57:55;;;;;;;4.50;1.40;;;2.60;99.90;;;;;;4137490;28;20538;-70
2021/03/05 07:59:59;;;;;;;2.65;1.30;;;2.70;99.90;;;;;;4157613;28;20059;-70
2021/03/05 08:02:00;;;;;;;3.35;1.50;;;2.80;99.90;;;;;;4156088;28;20107;-69
2021/03/05 08:04:00;;;;;;;3.78;1.67;;;2.80;99.90;;;;;;4156336;28;20037;-69
2021/03/05 08:06:01;;;;;;;4.20;1.50;;;3.00;99.90;;;;;;4157315;28;20047;-70
2021/03/05 08:08:12;;;;;;;3.10;1.73;;;3.20;99.90;;;;;;4155072;28;20041;-70
2021/03/05 08:11:03;;;;;;;4.75;1.52;;;3.30;99.90;;;;;;4157399;28;20041;-70
2021/03/05 08:13:46;;;;;;;5.13;1.65;;;3.50;99.90;;;;;;4150924;28;20530;-70
2021/03/05 08:15:47;;;;;;;3.63;1.60;;;3.60;99.90;;;;;;4156519;28;20037;-70
2021/03/05 08:17:49;;;;;;;3.85;1.67;;;3.60;99.90;;;;;;4155682;28;20430;-70
2021/03/05 08:19:51;;;;;;;3.30;1.30;;;3.60;99.90;;;;;;4156616;28;20026;-70
2021/03/05 08:21:56;;;;;;;2.30;1.35;;;3.90;99.90;;;;;;4157070;28;20053;-70
2021/03/05 08:24:22;;;;;;;4.95;1.45;;;4.10;99.90;;;;;;4154598;28;20486;-70
2021/03/05 08:26:56;;;;;;;3.50;1.13;;;3.90;99.90;;;;;;4155562;28;20033;-70
2021/03/05 08:28:56;;;;;;;3.88;1.10;;;4.50;99.90;;;;;;4152209;28;20136;-70
2021/03/05 08:30:57;;;;;;;4.53;1.33;;;4.60;99.90;;;;;;4154566;28;20061;-70
2021/03/05 08:33:08;;;;;;;3.15;1.40;;;4.50;99.90;;;;;;4156153;28;20086;-70
2021/03/05 08:35:09;;;;;;;3.20;1.35;;;4.50;99.90;;;;;;4157263;28;20039;-70
2021/03/05 08:37:29;;;;;;;6.18;1.60;;;4.60;99.90;;;;;;4156695;28;20299;-71
2021/03/05 08:39:30;;;;;;;4.05;1.60;;;4.70;99.90;;;;;;4155899;28;20049;-70
2021/03/05 08:41:31;;;;;;;2.92;1.55;;;4.80;99.90;;;;;;4157267;28;20112;-70
2021/03/05 08:43:35;;;;;;;3.47;1.50;;;5.00;99.90;;;;;;4156341;28;20120;-71
2021/03/05 08:45:44;;;;;;;3.17;1.35;;;5.30;99.90;;;;;;4156210;28;20428;-70
2021/03/05 08:47:50;;;;;;;3.42;1.70;;;5.40;99.90;;;;;;4156391;28;20128;-70
2021/03/05 08:49:51;;;;;;;3.42;1.23;;;5.70;99.90;;;;;;4153877;28;20493;-70
2021/03/05 08:51:57;;;;;;;3.63;1.25;;;6.10;99.90;;;;;;4152926;28;20033;-71
2021/03/05 08:53:58;;;;;;;6.65;1.50;;;6.40;99.90;;;;;;4156902;28;20389;-71
2021/03/05 08:55:58;;;;;;;2.95;1.23;;;6.40;99.90;;;;;;4156725;28;20088;-71
2021/03/05 08:58:02;;;;;;;3.80;1.25;;;6.50;99.90;;;;;;4156562;28;20034;-71
2021/03/05 09:00:04;;;;;;;1.55;0.90;;;6.30;99.90;;;;;;4156626;28;20144;-71
2021/03/05 09:02:12;;;;;;;3.30;1.30;;;6.10;99.90;;;;;;4153055;28;20037;-71
2021/03/05 09:04:16;;;;;;;2.80;1.20;;;6.10;99.90;;;;;;4157251;28;20121;-71
2021/03/05 09:06:16;;;;;;;2.33;1.05;;;6.40;99.90;;;;;;4153062;28;20041;-71
2021/03/05 09:08:26;;;;;;;2.20;0.90;;;6.50;99.90;;;;;;4137587;28;20184;-71
2021/03/05 09:10:41;;;;;;;3.90;1.13;;;6.70;99.90;;;;;;4155375;28;20045;-71
2021/03/05 09:12:55;;;;;;;2.42;1.05;;;6.90;99.90;;;;;;4150673;28;20042;-71
2021/03/05 09:15:02;;;;;;;3.13;1.10;;;7.00;99.90;;;;;;4151000;28;20498;-71
2021/03/05 09:17:05;;;;;;;4.85;1.00;;;6.60;99.90;;;;;;4153300;28;20389;-71
2021/03/05 09:19:05;;;;;;;3.10;1.25;;;6.40;99.90;;;;;;4153712;28;20120;-71
2021/03/05 09:21:09;;;;;;;4.60;1.25;;;6.00;99.90;;;;;;4154321;28;20034;-71
2021/03/05 09:23:29;;;;;;;4.07;1.02;;;6.10;99.90;;;;;;4179543;28;20454;-70
2021/03/05 09:25:30;;;;;;;4.00;1.05;;;6.30;99.90;;;;;;4152832;28;20048;-71
2021/03/05 09:27:39;;;;;;;4.35;1.08;;;6.30;99.90;;;;;;4154281;28;20018;-70
2021/03/05 09:29:40;;;;;;;2.47;1.02;;;6.30;99.90;;;;;;4155617;28;20033;-71
2021/03/05 09:31:41;;;;;;;2.65;0.98;;;6.40;99.90;;;;;;4156002;28;20032;-71
2021/03/05 09:33:44;;;;;;;4.25;1.10;;;6.50;99.90;;;;;;4156340;28;20107;-70
2021/03/05 09:35:44;;;;;;;4.00;1.25;;;6.60;99.90;;;;;;4156884;28;20423;-70
2021/03/05 09:37:45;;;;;;;3.80;1.20;;;6.70;99.90;;;;;;4156075;28;20079;-70
2021/03/05 09:39:49;;;;;;;4.97;1.20;;;6.80;99.90;;;;;;4151526;28;20389;-70
2021/03/05 09:41:49;;;;;;;;;;;6.30;99.90;;;;;;4154452;28;20095;-71
2021/03/05 09:44:06;;;;;;;2.92;0.90;;;6.40;99.90;;;;;;4159335;28;19913;-71
2021/03/05 09:46:21;;;;;;;4.25;1.05;;;6.40;99.90;;;;;;4159117;28;20478;-71
2021/03/05 09:48:33;;;;;;;2.80;1.10;;;6.50;99.90;;;;;;4154346;28;20124;-71
2021/03/05 09:50:34;;;;;;;2.88;0.70;;;6.70;99.90;;;;;;4157262;28;20045;-71
2021/03/05 09:52:35;;;;;;;2.97;0.82;;;6.80;99.90;;;;;;4156603;28;20311;-71
2021/03/05 09:54:40;;;;;;;1.98;1.02;;;6.80;99.90;;;;;;4155396;28;20037;-71
2021/03/05 09:56:45;;;;;;;3.75;1.00;;;6.70;99.90;;;;;;4157774;28;20053;-71
2021/03/05 09:59:00;;;;;;;4.03;1.30;;;6.80;99.90;;;;;;4141311;28;20125;-71
2021/03/05 10:01:02;;;;;;;2.83;0.95;;;7.00;99.90;;;;;;4177059;28;20040;-71
2021/03/05 10:03:04;;;;;;;4.45;0.98;;;6.70;99.90;;;;;;4159864;28;20045;-70
2021/03/05 10:05:05;;;;;;;4.55;1.25;;;6.60;99.90;;;;;;4159253;28;20030;-71
2021/03/05 10:07:06;;;;;;;2.13;0.82;;;6.50;99.90;;;;;;4159330;28;20416;-71
2021/03/05 10:09:12;;;;;;;2.60;0.90;;;6.10;99.90;;;;;;4159673;28;20037;-71
2021/03/05 10:11:14;;;;;;;3.80;1.00;;;6.40;99.90;;;;;;4158287;28;20041;-70
2021/03/05 10:13:14;;;;;;;3.33;0.75;;;6.60;99.90;;;;;;4157929;28;20448;-71
2021/03/05 10:15:15;;;;;;;5.15;1.05;;;6.50;99.90;;;;;;4159754;28;20029;-70
2021/03/05 10:17:19;;;;;;;2.42;0.90;;;6.50;99.90;;;;;;4152633;28;20083;-70
2021/03/05 10:19:21;;;;;;;1.20;0.70;;;6.50;99.90;;;;;;4156081;28;20044;-71
2021/03/05 10:21:24;;;;;;;2.13;0.98;;;6.60;99.90;;;;;;4158968;28;20042;-71
2021/03/05 10:23:24;;;;;;;5.65;1.27;;;6.80;99.90;;;;;;4159502;28;20091;-71
2021/03/05 10:25:25;;;;;;;5.32;0.93;;;6.50;99.90;;;;;;4159513;28;20033;-71
2021/03/05 10:27:25;;;;;;;6.45;0.80;;;6.60;99.90;;;;;;4159228;28;20113;-70
2021/03/05 10:29:46;;;;;;;1.88;0.98;;;6.50;99.90;;;;;;4160302;28;20501;-71
2021/03/05 10:31:50;;;;;;;2.22;0.93;;;6.50;99.90;;;;;;4141334;28;20029;-71
2021/03/05 10:33:51;;;;;;;2.40;1.17;;;6.60;99.90;;;;;;4155721;28;20468;-71
2021/03/05 10:35:52;;;;;;;4.10;1.15;;;6.50;99.90;;;;;;4159843;28;20061;-71
2021/03/05 10:37:53;;;;;;;3.53;1.00;;;6.30;99.90;;;;;;4158875;28;20116;-71
2021/03/05 10:39:54;;;;;;;2.63;0.82;;;6.10;99.90;;;;;;4158507;28;20041;-70
2021/03/05 10:41:58;;;;;;;3.63;1.10;;;6.10;99.90;;;;;;4160487;28;20045;-71
2021/03/05 10:43:58;;;;;;;3.30;0.93;;;6.00;99.90;;;;;;4156498;28;20037;-71
2021/03/05 10:45:59;;;;;;;1.90;0.88;;;6.10;99.90;;;;;;4160058;28;20732;-71
2021/03/05 10:48:00;;;;;;;1.88;0.98;;;6.30;99.90;;;;;;4158621;28;20425;-70
2021/03/05 10:50:01;;;;;;;4.25;0.80;;;6.50;99.90;;;;;;4159107;28;20033;-71
2021/03/05 10:52:03;;;;;;;2.58;1.10;;;6.70;99.90;;;;;;4159617;28;20422;-70